Time;durP1;ratioP1;P1;durP2;ratioP2;P2;SDS_P1;SDS_P2;PMS_P1;PMS_P2;Temp;Humidity;BMP_temperature;BMP_pressure;BME280_temperature;BME280_humidity;BME280_pressure;Samples;Min_cycle;Max_cycle;Signal;HPM_P1;HPM_P2
2022/11/08 00:01:33;;;;;;;21.02;15.95;;;;;;;22.20;47.38;95402.91;5010540;28;20555;-58
2022/11/08 00:04:03;;;;;;;24.08;16.63;;;;;;;22.02;47.38;95365.31;5007885;28;20051;-59
2022/11/08 00:14:41;;;;;;;21.05;16.20;;;;;;;22.17;47.58;95382.88;5009616;28;20457;-59
2022/11/08 00:17:07;;;;;;;24.17;17.60;;;;;;;21.51;47.49;95299.69;5009821;28;20037;-60
2022/11/08 00:19:32;;;;;;;23.23;17.35;;;;;;;21.93;47.32;95352.66;5009261;28;20568;-61
2022/11/08 00:21:58;;;;;;;23.05;17.58;;;;;;;22.15;47.50;95385.34;5009172;28;20463;-61
2022/11/08 00:24:23;;;;;;;23.17;17.25;;;;;;;21.91;47.40;95334.63;5008763;28;20814;-62
2022/11/08 00:26:49;;;;;;;21.52;16.75;;;;;;;22.15;47.40;95379.91;5012676;28;20098;-58
2022/11/08 00:29:14;;;;;;;22.45;16.65;;;;;;;22.13;47.56;95389.78;5011948;28;20033;-60
2022/11/08 00:31:40;;;;;;;20.17;15.50;;;;;;;21.89;47.52;95342.53;5013205;28;20079;-59
2022/11/08 00:34:05;;;;;;;22.02;16.38;;;;;;;22.08;47.51;95369.50;5012153;28;20064;-60
2022/11/08 00:36:30;;;;;;;21.60;16.35;;;;;;;21.03;47.24;95217.53;5011770;28;20045;-59
2022/11/08 00:38:56;;;;;;;22.23;16.75;;;;;;;22.12;47.20;95380.13;5014250;28;20092;-60
2022/11/08 00:41:21;;;;;;;21.45;16.30;;;;;;;22.06;47.41;95366.53;4994836;28;20049;-61
2022/11/08 00:43:47;;;;;;;22.33;16.40;;;;;;;21.02;47.23;95221.47;5013697;28;20041;-61
2022/11/08 00:46:12;;;;;;;22.05;16.55;;;;;;;22.12;47.50;95380.91;5012980;28;20037;-61
2022/11/08 00:48:38;;;;;;;21.02;16.80;;;;;;;21.94;47.41;95348.72;5013893;28;20042;-61
2022/11/08 00:51:04;;;;;;;21.10;16.23;;;;;;;22.11;47.41;95379.41;5012576;28;20038;-61
2022/11/08 00:53:30;;;;;;;20.38;15.95;;;;;;;21.95;47.39;95363.78;5011576;28;20045;-58
2022/11/08 00:56:00;;;;;;;20.70;16.08;;;;;;;22.08;47.37;95374.94;4994516;28;20099;-62
2022/11/08 00:58:25;;;;;;;21.20;16.48;;;;;;;22.05;47.43;95370.50;5003318;28;20018;-62
2022/11/08 01:00:51;;;;;;;20.70;15.63;;;;;;;22.10;47.27;95407.09;4995412;28;20505;-60
2022/11/08 01:03:20;;;;;;;22.00;16.15;;;;;;;21.91;47.34;95348.94;5011723;28;20058;-61
2022/11/08 01:05:46;;;;;;;22.10;16.70;;;;;;;21.84;47.44;95362.28;5009782;28;20442;-60
2022/11/08 01:08:12;;;;;;;22.50;17.52;;;;;;;22.08;47.59;95380.38;4993348;28;20451;-57
2022/11/08 01:10:41;;;;;;;22.88;16.48;;;;;;;22.08;47.43;95374.22;5014145;28;20048;-59
2022/11/08 01:13:07;;;;;;;21.65;16.35;;;;;;;21.86;47.63;95335.34;5012067;28;20077;-60
2022/11/08 01:15:36;;;;;;;21.70;15.50;;;;;;;22.04;47.48;95369.00;4994536;28;20064;-60
2022/11/08 01:18:03;;;;;;;20.40;15.70;;;;;;;21.95;47.55;95382.81;4994128;28;20081;-62
2022/11/08 01:20:28;;;;;;;20.45;16.05;;;;;;;20.80;47.46;95187.34;4995143;28;20045;-63
2022/11/08 01:22:53;;;;;;;20.90;16.00;;;;;;;22.06;47.42;95366.53;5011196;28;20025;-61
2022/11/08 01:25:19;;;;;;;20.77;15.68;;;;;;;21.76;47.51;95320.50;5012639;28;20104;-61
2022/11/08 01:27:44;;;;;;;21.02;15.23;;;;;;;22.06;47.51;95371.97;5011233;28;20038;-60
2022/11/08 01:30:10;;;;;;;20.35;15.48;;;;;;;22.05;47.38;95381.38;5012239;28;20083;-59
2022/11/08 01:32:35;;;;;;;20.13;16.08;;;;;;;22.03;47.44;95367.53;5011948;28;20493;-61
2022/11/08 01:35:01;;;;;;;19.60;15.00;;;;;;;21.12;47.42;95230.13;5011719;28;20133;-60
2022/11/08 01:37:26;;;;;;;20.75;15.75;;;;;;;21.78;47.35;95328.88;5010136;28;20029;-62
2022/11/08 01:39:52;;;;;;;19.27;15.15;;;;;;;20.34;47.18;95112.88;5011579;28;20075;-59
2022/11/08 01:42:25;;;;;;;18.10;14.77;;;;;;;21.31;47.18;95264.50;5011681;28;20049;-61
2022/11/08 01:45:05;;;;;;;20.27;15.43;;;;;;;22.03;47.64;95361.34;4978153;28;20045;-61
2022/11/08 01:47:30;;;;;;;17.83;14.75;;;;;;;22.03;47.41;95367.53;4992549;28;20049;-61
2022/11/08 01:50:16;;;;;;;20.33;14.82;;;;;;;22.04;47.46;95374.44;5010813;28;20073;-61
2022/11/08 01:52:49;;;;;;;20.50;15.77;;;;;;;22.04;47.57;95374.44;5010319;28;20049;-58
2022/11/08 01:55:25;;;;;;;21.33;15.27;;;;;;;22.01;47.23;95364.53;4993753;28;20025;-59
2022/11/08 01:58:16;;;;;;;19.60;14.98;;;;;;;22.03;47.56;95372.97;5010297;28;20819;-61
2022/11/08 02:00:42;;;;;;;18.70;14.98;;;;;;;21.65;47.32;95309.59;5010774;28;20136;-59
2022/11/08 02:03:09;;;;;;;20.05;15.57;;;;;;;22.03;47.44;95389.28;4975736;28;20045;-61
2022/11/08 02:05:34;;;;;;;19.25;14.98;;;;;;;21.82;47.53;95345.72;4991845;28;20045;-59
2022/11/08 02:08:15;;;;;;;19.27;14.65;;;;;;;22.02;47.49;95376.91;4989479;28;20041;-58
2022/11/08 02:10:42;;;;;;;19.55;15.10;;;;;;;21.98;47.44;95376.41;5010718;28;20522;-61
2022/11/08 02:13:10;;;;;;;19.70;15.00;;;;;;;20.07;47.29;95083.66;4963961;28;20129;-59
2022/11/08 02:15:35;;;;;;;20.00;15.45;;;;;;;22.02;47.21;95376.91;5010960;28;20048;-61
2022/11/08 02:18:01;;;;;;;19.35;14.70;;;;;;;22.02;47.51;95376.91;5009126;28;20041;-61
2022/11/08 02:20:26;;;;;;;19.42;15.13;;;;;;;22.01;47.22;95363.81;5010374;28;20858;-60
2022/11/08 02:23:13;;;;;;;19.13;14.68;;;;;;;22.00;47.46;95401.16;5011366;28;20037;-62
2022/11/08 02:25:38;;;;;;;20.85;14.70;;;;;;;22.00;47.26;95373.94;5010712;28;20356;-59
2022/11/08 02:28:04;;;;;;;18.42;14.10;;;;;;;22.00;47.63;95368.50;5010109;28;20628;-58
2022/11/08 02:30:36;;;;;;;19.50;14.57;;;;;;;21.99;47.36;95386.06;5010191;28;20124;-58
2022/11/08 02:33:21;;;;;;;18.17;14.80;;;;;;;21.40;47.44;95283.31;4991318;28;20923;-60
2022/11/08 02:35:53;;;;;;;18.95;14.60;;;;;;;21.99;47.63;95372.47;5008871;28;20038;-60
2022/11/08 02:38:19;;;;;;;18.77;14.77;;;;;;;21.98;47.61;95376.41;5009784;28;20081;-60
2022/11/08 02:40:49;;;;;;;17.60;14.63;;;;;;;21.93;47.61;95365.53;4992427;28;20033;-61
2022/11/08 02:43:14;;;;;;;17.55;14.05;;;;;;;21.98;47.33;95360.09;5010671;28;20133;-60
2022/11/08 02:45:40;;;;;;;18.95;14.82;;;;;;;21.97;47.41;95364.06;5009316;28;20422;-58
2022/11/08 02:48:05;;;;;;;18.52;14.52;;;;;;;21.94;47.51;95361.56;5003834;28;20044;-61
2022/11/08 02:50:31;;;;;;;19.30;14.82;;;;;;;21.99;47.47;95360.84;4979148;28;20034;-60
2022/11/08 02:52:56;;;;;;;17.20;14.15;;;;;;;21.97;47.72;95390.50;5010075;28;20397;-59
2022/11/08 02:55:22;;;;;;;18.63;14.30;;;;;;;21.97;47.44;95363.28;5010494;28;20183;-61
2022/11/08 02:57:47;;;;;;;20.88;14.02;;;;;;;21.96;47.57;95368.00;5010340;28;20074;-62
2022/11/08 03:00:13;;;;;;;18.50;14.73;;;;;;;21.79;47.55;95335.81;5010070;28;20343;-59
2022/11/08 03:02:39;;;;;;;19.55;14.35;;;;;;;21.96;47.29;95362.56;4991736;28;20057;-59
2022/11/08 03:05:05;;;;;;;17.73;14.18;;;;;;;21.95;47.55;95363.78;5010239;28;20049;-61
2022/11/08 03:07:30;;;;;;;19.52;14.90;;;;;;;21.80;47.32;95337.31;4993065;28;20545;-62
2022/11/08 03:09:55;;;;;;;18.75;14.02;;;;;;;21.97;47.22;95380.38;5009846;28;20454;-62
2022/11/08 03:12:21;;;;;;;18.55;14.32;;;;;;;21.96;47.60;95368.00;4991452;28;20040;-61
2022/11/08 03:14:46;;;;;;;19.40;14.68;;;;;;;21.96;47.22;95362.56;4975810;28;20467;-62
2022/11/08 03:17:12;;;;;;;18.83;14.43;;;;;;;21.97;47.66;95369.50;5009027;28;20045;-60
2022/11/08 03:19:37;;;;;;;17.58;13.80;;;;;;;21.96;47.43;95368.00;5008809;28;20522;-59
2022/11/08 03:22:03;;;;;;;17.85;14.57;;;;;;;21.96;47.43;95373.44;4991801;28;20556;-60
2022/11/08 03:24:28;;;;;;;18.58;13.90;;;;;;;21.95;47.39;95377.38;4992207;28;20391;-61
2022/11/08 03:26:53;;;;;;;17.42;13.75;;;;;;;21.62;47.53;95316.03;5010153;28;20494;-60
2022/11/08 03:29:19;;;;;;;17.50;13.77;;;;;;;21.64;47.35;95325.19;5009402;28;20041;-59
2022/11/08 03:31:45;;;;;;;17.05;13.07;;;;;;;21.97;47.70;95374.16;5001617;28;20079;-62
2022/11/08 03:34:10;;;;;;;16.65;13.30;;;;;;;21.96;47.33;95381.59;5010089;28;20021;-62
2022/11/08 03:36:35;;;;;;;17.45;13.82;;;;;;;21.71;47.37;95345.69;5009123;28;20593;-62
2022/11/08 03:39:01;;;;;;;18.23;14.23;;;;;;;21.95;47.45;95382.09;4990194;28;20050;-62
2022/11/08 03:41:26;;;;;;;18.52;14.02;;;;;;;21.94;47.47;95386.78;5009054;28;20056;-60
2022/11/08 03:43:52;;;;;;;18.42;13.60;;;;;;;21.91;47.42;95380.84;4990956;28;20032;-59
2022/11/08 03:46:17;;;;;;;16.67;12.98;;;;;;;21.70;47.53;95360.50;5009959;28;20037;-61
2022/11/08 03:48:43;;;;;;;16.55;13.10;;;;;;;21.66;47.62;95343.72;4974083;28;20581;-62
2022/11/08 03:51:08;;;;;;;16.25;13.18;;;;;;;20.98;47.40;95242.69;5008245;28;20160;-61
2022/11/08 03:53:34;;;;;;;17.73;13.43;;;;;;;21.94;47.50;95392.22;4991236;28;20494;-61
2022/11/08 03:55:59;;;;;;;18.23;13.45;;;;;;;21.93;47.43;95385.28;4990933;28;20057;-60
2022/11/08 03:58:25;;;;;;;15.48;13.55;;;;;;;21.92;47.56;95391.97;4998776;28;20029;-62
2022/11/08 04:00:50;;;;;;;17.23;12.98;;;;;;;21.89;47.55;95377.88;5010577;28;20152;-60
2022/11/08 04:03:15;;;;;;;17.10;13.00;;;;;;;21.84;47.46;95373.16;5012883;28;21011;-62
2022/11/08 04:05:41;;;;;;;17.10;13.00;;;;;;;21.92;47.35;95383.81;4992402;28;20402;-60
2022/11/08 04:08:06;;;;;;;16.38;12.93;;;;;;;20.73;47.22;95204.06;5013323;28;20419;-59
2022/11/08 04:10:32;;;;;;;17.23;12.52;;;;;;;21.92;47.58;95378.34;5013453;28;20037;-60
2022/11/08 04:15:42;;;;;;;17.35;13.55;;;;;;;21.71;47.55;95345.69;4991578;28;20479;-61
2022/11/08 04:23:36;;;;;;;17.05;13.10;;;;;;;21.92;47.63;95378.34;5013085;28;20532;-60
2022/11/08 04:26:04;;;;;;;16.15;13.02;;;;;;;21.65;47.57;95331.34;5012018;28;20041;-62
2022/11/08 04:28:31;;;;;;;15.68;13.00;;;;;;;21.42;47.58;95297.16;4994591;28;20038;-59
2022/11/08 04:31:06;;;;;;;14.65;12.25;;;;;;;20.76;47.41;95203.09;4994625;28;20100;-59
2022/11/08 04:33:32;;;;;;;16.15;13.00;;;;;;;21.81;47.78;95374.13;4998624;28;20046;-60
2022/11/08 04:36:04;;;;;;;16.55;12.60;;;;;;;21.89;47.42;95372.44;4989088;28;20545;-60
2022/11/08 04:38:30;;;;;;;15.02;12.38;;;;;;;21.89;47.57;95361.56;4994893;28;20215;-62
2022/11/08 04:41:00;;;;;;;16.02;12.90;;;;;;;21.88;47.39;95370.94;4994410;28;20018;-60
2022/11/08 04:43:26;;;;;;;15.73;12.15;;;;;;;21.86;47.47;95395.16;4995164;28;20095;-60
2022/11/08 04:45:51;;;;;;;18.63;12.65;;;;;;;21.83;47.52;95363.53;5012257;28;20754;-60
2022/11/08 04:48:17;;;;;;;14.25;12.05;;;;;;;21.87;47.60;95372.94;5011856;28;20055;-61
2022/11/08 04:50:42;;;;;;;15.77;12.52;;;;;;;21.75;47.60;95351.63;5011840;28;20409;-60
2022/11/08 04:53:08;;;;;;;17.17;12.90;;;;;;;21.73;47.75;95359.53;4994545;28;20470;-58
2022/11/08 04:55:35;;;;;;;16.27;12.57;;;;;;;21.57;47.59;95360.22;4994403;28;20017;-60
2022/11/08 04:58:01;;;;;;;15.18;12.15;;;;;;;21.87;47.61;95391.19;4998838;28;20837;-61
2022/11/08 05:00:26;;;;;;;15.95;12.57;;;;;;;21.90;47.59;95395.66;5010406;28;20045;-63
2022/11/08 05:02:52;;;;;;;16.15;13.30;;;;;;;21.96;47.60;95389.75;5011049;28;20567;-61
2022/11/08 05:05:17;;;;;;;16.75;12.88;;;;;;;21.91;47.73;95380.84;5009780;28;20236;-62
2022/11/08 05:07:43;;;;;;;15.13;11.90;;;;;;;21.99;47.54;95388.78;5009905;28;20044;-61
2022/11/08 05:10:09;;;;;;;15.88;12.40;;;;;;;20.89;47.48;95216.97;4992556;28;20033;-60
2022/11/08 05:12:34;;;;;;;14.95;12.27;;;;;;;22.04;47.61;95390.75;5007632;28;20381;-63
2022/11/08 05:15:00;;;;;;;15.73;12.43;;;;;;;22.05;47.63;95392.25;5008725;28;20104;-59
2022/11/08 05:17:25;;;;;;;14.98;12.68;;;;;;;21.21;47.56;95260.56;5008197;28;20118;-64
2022/11/08 05:25:19;;;;;;;16.17;12.48;;;;;;;22.24;47.21;95393.31;5008260;28;20424;-61
2022/11/08 05:27:45;;;;;;;15.13;11.90;;;;;;;22.32;46.96;95383.44;5010511;28;20045;-63
2022/11/08 05:30:10;;;;;;;16.15;12.82;;;;;;;22.04;46.88;95346.50;5009605;28;20406;-62
2022/11/08 05:32:36;;;;;;;17.50;12.60;;;;;;;21.04;46.97;95178.28;5008833;28;20597;-62
2022/11/08 05:35:01;;;;;;;16.13;11.98;;;;;;;22.42;47.01;95395.56;5006736;28;20592;-59
2022/11/08 05:37:27;;;;;;;15.95;12.98;;;;;;;22.09;46.87;95337.59;5003100;28;20078;-62
2022/11/08 05:39:52;;;;;;;14.35;12.30;;;;;;;22.53;46.57;95382.69;5007500;28;20049;-62
2022/11/08 05:42:18;;;;;;;16.75;12.60;;;;;;;22.54;46.77;95378.75;5009271;28;20050;-61
2022/11/08 05:44:43;;;;;;;15.43;12.68;;;;;;;22.67;46.20;95391.84;5009089;28;20037;-60
2022/11/08 05:47:08;;;;;;;15.10;12.35;;;;;;;22.38;46.35;95337.91;5009294;28;20041;-62
2022/11/08 05:49:34;;;;;;;16.35;12.50;;;;;;;22.76;46.52;95391.59;5010194;28;20135;-62
2022/11/08 05:51:59;;;;;;;14.90;11.65;;;;;;;22.75;46.46;95398.28;5011259;28;20045;-61
2022/11/08 05:54:25;;;;;;;13.27;11.38;;;;;;;21.69;46.15;95234.03;4993356;28;20425;-61
2022/11/08 05:56:50;;;;;;;15.63;12.70;;;;;;;23.03;45.56;95408.72;5011650;28;20037;-63
2022/11/08 05:59:16;;;;;;;15.32;12.43;;;;;;;23.00;46.05;95404.25;5008340;28;20197;-59
2022/11/08 06:01:41;;;;;;;15.40;12.60;;;;;;;23.03;45.53;95408.72;5009522;28;20060;-61
2022/11/08 06:04:07;;;;;;;14.25;11.50;;;;;;;23.06;45.56;95412.41;5010876;28;20021;-60
2022/11/08 06:06:32;;;;;;;15.18;12.93;;;;;;;22.11;45.81;95292.38;4994173;28;20037;-61
2022/11/08 06:08:58;;;;;;;14.35;12.02;;;;;;;23.05;45.86;95421.81;5004009;28;20057;-59
2022/11/08 06:11:25;;;;;;;15.55;11.95;;;;;;;23.03;46.02;95403.25;5008209;28;20076;-63
2022/11/08 06:13:50;;;;;;;15.60;12.45;;;;;;;23.19;45.57;95459.69;5008831;28;20036;-60
2022/11/08 06:16:17;;;;;;;15.32;11.68;;;;;;;23.16;45.92;95425.25;5008980;28;20030;-59
2022/11/08 06:18:42;;;;;;;13.30;11.30;;;;;;;23.18;45.70;95430.94;5006134;28;20046;-61
2022/11/08 06:21:11;;;;;;;13.70;11.75;;;;;;;23.36;45.41;95424.97;4988094;28;20045;-62
2022/11/08 06:23:36;;;;;;;15.68;12.27;;;;;;;23.34;45.75;95449.25;5000471;28;20037;-59
2022/11/08 06:26:02;;;;;;;13.40;11.38;;;;;;;23.15;45.88;95399.28;5006492;28;20056;-59
2022/11/08 06:28:28;;;;;;;14.60;11.40;;;;;;;23.32;47.27;95416.31;5007913;28;20515;-62
2022/11/08 06:30:53;;;;;;;13.02;10.57;;;;;;;23.59;46.69;95437.31;5009493;28;20044;-61
2022/11/08 06:33:19;;;;;;;12.55;10.90;;;;;;;23.56;46.82;95428.16;5010331;28;20522;-61
2022/11/08 06:35:45;;;;;;;14.15;11.30;;;;;;;23.54;46.79;95451.69;5007200;28;20103;-61
2022/11/08 06:38:10;;;;;;;13.15;10.95;;;;;;;23.53;47.49;95456.41;5007232;28;20045;-60
2022/11/08 06:40:36;;;;;;;15.60;11.75;;;;;;;23.49;48.09;95487.91;5008914;28;20030;-63
2022/11/08 06:43:02;;;;;;;14.32;11.40;;;;;;;23.47;50.28;95452.97;5002640;28;20140;-60
2022/11/08 06:45:27;;;;;;;13.52;11.07;;;;;;;23.27;48.11;95422.50;4996994;28;20068;-62
2022/11/08 06:48:00;;;;;;;16.27;12.02;;;;;;;22.36;47.00;95307.00;4986250;28;20033;-61
2022/11/08 06:50:26;;;;;;;14.75;11.07;;;;;;;23.58;47.36;95454.91;4990471;28;20136;-62
2022/11/08 06:52:59;;;;;;;14.43;11.43;;;;;;;23.53;46.78;95412.06;5006394;28;20036;-61
2022/11/08 06:55:25;;;;;;;13.55;10.80;;;;;;;23.59;47.24;95453.69;4994181;28;20476;-62
2022/11/08 06:57:50;;;;;;;13.55;11.45;;;;;;;23.60;46.69;95460.59;5008588;28;20121;-61
2022/11/08 07:00:16;;;;;;;13.50;11.07;;;;;;;23.26;46.78;95415.59;5007182;28;20100;-61
2022/11/08 07:02:43;;;;;;;13.88;11.07;;;;;;;23.15;46.68;95399.28;4971626;28;20048;-59
2022/11/08 07:05:09;;;;;;;12.77;10.70;;;;;;;23.58;46.32;95495.81;5010394;28;20516;-61
2022/11/08 07:07:34;;;;;;;12.82;10.75;;;;;;;23.51;46.26;95453.44;4990584;28;20046;-64
2022/11/08 07:10:00;;;;;;;13.23;10.13;;;;;;;23.06;45.92;95391.38;4992437;28;20041;-65
2022/11/08 07:12:25;;;;;;;11.88;10.45;;;;;;;23.60;46.22;95466.06;5005616;28;20045;-61
2022/11/08 07:14:50;;;;;;;14.05;11.38;;;;;;;23.65;46.23;95451.72;5006586;28;20883;-60
2022/11/08 07:17:16;;;;;;;12.93;11.20;;;;;;;23.80;46.13;95458.34;5007772;28;20045;-61
2022/11/08 07:19:41;;;;;;;12.35;10.82;;;;;;;23.59;45.66;95431.88;5001920;28;20510;-59
2022/11/08 07:22:07;;;;;;;14.70;10.75;;;;;;;23.45;46.38;95427.44;5009322;28;20033;-61
2022/11/08 07:24:32;;;;;;;12.07;10.27;;;;;;;23.66;45.42;95436.81;5005795;28;20103;-60
2022/11/08 07:26:58;;;;;;;14.88;11.52;;;;;;;23.83;46.02;95459.34;5004297;28;20820;-61
2022/11/08 07:29:23;;;;;;;12.93;10.57;;;;;;;23.79;45.57;95472.50;4996768;28;20585;-62
2022/11/08 07:31:49;;;;;;;13.98;10.50;;;;;;;23.70;46.05;95465.31;5000099;28;20028;-60
2022/11/08 07:34:16;;;;;;;13.02;10.80;;;;;;;23.73;45.91;95463.59;5004166;28;20096;-61
2022/11/08 07:36:42;;;;;;;13.52;11.18;;;;;;;23.65;46.05;95462.63;5006385;28;20126;-58
2022/11/08 07:39:07;;;;;;;13.63;10.73;;;;;;;23.72;45.69;95462.09;5006667;28;20039;-60
2022/11/08 07:41:33;;;;;;;12.45;10.65;;;;;;;23.54;46.17;95462.59;4974137;28;20045;-62
2022/11/08 07:43:58;;;;;;;17.70;10.82;;;;;;;23.47;46.10;95465.84;4988676;28;20059;-60
2022/11/08 07:46:24;;;;;;;13.40;10.90;;;;;;;23.38;46.10;95466.13;5006897;28;20501;-59
2022/11/08 07:48:49;;;;;;;14.27;10.95;;;;;;;22.17;46.23;95301.28;5008650;28;20342;-58
2022/11/08 07:51:15;;;;;;;15.30;10.73;;;;;;;22.17;46.50;95314.88;4981594;28;20599;-59
2022/11/08 07:53:42;;;;;;;15.80;11.30;;;;;;;23.10;46.41;95462.66;4984856;28;20045;-60
2022/11/08 07:56:07;;;;;;;12.30;10.32;;;;;;;23.12;46.32;95468.38;5006143;28;20077;-59
2022/11/08 07:58:33;;;;;;;13.13;10.77;;;;;;;23.02;46.89;95467.13;5009034;28;20056;-59
2022/11/08 08:01:02;;;;;;;14.80;10.75;;;;;;;22.97;46.94;95457.00;5002036;28;20033;-59
2022/11/08 08:03:27;;;;;;;13.88;10.88;;;;;;;22.81;46.82;95450.75;5009857;28;20665;-58
2022/11/08 08:05:53;;;;;;;13.90;10.82;;;;;;;22.94;46.83;95466.16;4974801;28;20037;-58
2022/11/08 08:08:18;;;;;;;13.70;10.52;;;;;;;22.16;46.98;95337.13;4973351;28;20591;-61
2022/11/08 08:10:44;;;;;;;13.52;10.82;;;;;;;22.87;46.99;95454.22;4991742;28;20029;-60
2022/11/08 08:13:09;;;;;;;13.95;10.48;;;;;;;22.88;46.95;95466.59;4993159;28;20496;-60
2022/11/08 08:15:35;;;;;;;13.93;10.85;;;;;;;22.79;47.15;95475.75;5010440;28;20388;-60
2022/11/08 08:18:04;;;;;;;13.70;10.23;;;;;;;22.76;47.23;95478.72;5009785;28;20619;-60
2022/11/08 08:20:30;;;;;;;13.10;10.93;;;;;;;21.50;47.22;95287.34;5009917;28;20096;-58
2022/11/08 08:22:56;;;;;;;14.15;10.23;;;;;;;22.54;47.38;95454.19;4998254;28;20025;-61
2022/11/08 08:25:21;;;;;;;13.98;10.63;;;;;;;22.71;47.40;95474.03;5009427;28;20033;-59
2022/11/08 08:27:50;;;;;;;13.65;10.75;;;;;;;22.63;47.53;95473.00;4991504;28;20065;-59
2022/11/08 08:30:16;;;;;;;13.25;10.60;;;;;;;22.47;47.24;95443.81;5009408;28;20034;-61
2022/11/08 08:32:42;;;;;;;12.07;10.35;;;;;;;22.56;47.41;95462.63;5009499;28;20103;-61
2022/11/08 08:35:08;;;;;;;12.55;10.40;;;;;;;22.09;47.21;95398.19;5009288;28;20034;-60
2022/11/08 08:37:33;;;;;;;13.48;10.30;;;;;;;22.47;47.47;95460.13;4991121;28;20022;-59
2022/11/08 08:39:59;;;;;;;11.93;10.10;;;;;;;22.56;47.31;95484.41;4954173;28;20041;-59
2022/11/08 08:42:24;;;;;;;12.57;10.00;;;;;;;22.57;47.56;95480.41;5014152;28;20671;-60
2022/11/08 08:44:50;;;;;;;12.82;10.60;;;;;;;22.55;47.57;95472.00;5009719;28;20149;-59
2022/11/08 08:47:15;;;;;;;12.85;10.40;;;;;;;22.51;47.60;95474.22;4992752;28;20042;-60
2022/11/08 08:49:40;;;;;;;13.52;10.30;;;;;;;21.98;47.42;95403.59;5013277;28;20029;-60
2022/11/08 08:52:06;;;;;;;12.05;10.40;;;;;;;22.30;47.41;95450.44;4979123;28;20034;-60
2022/11/08 08:54:31;;;;;;;13.35;10.95;;;;;;;21.63;47.64;95361.00;4995790;28;20038;-59
2022/11/08 08:56:57;;;;;;;12.60;10.45;;;;;;;22.49;47.38;95495.75;5013083;28;20049;-60
2022/11/08 08:59:22;;;;;;;12.80;10.10;;;;;;;22.47;47.28;95492.78;5011778;28;20049;-61
2022/11/08 09:01:48;;;;;;;12.85;10.48;;;;;;;22.49;47.50;95484.88;5011863;28;20048;-61
2022/11/08 09:04:13;;;;;;;13.93;11.00;;;;;;;22.43;47.34;95470.50;5012905;28;20030;-61
2022/11/08 09:06:39;;;;;;;12.82;10.93;;;;;;;22.51;47.35;95487.84;4993708;28;20041;-58
2022/11/08 09:09:04;;;;;;;12.20;10.32;;;;;;;22.44;47.60;95488.34;5010776;28;20042;-61
2022/11/08 09:11:30;;;;;;;12.52;10.27;;;;;;;22.47;47.06;95481.91;5012745;28;20545;-59
2022/11/08 09:13:55;;;;;;;14.32;10.38;;;;;;;22.52;47.59;95483.88;4994271;28;20489;-58
2022/11/08 09:16:21;;;;;;;11.68;9.82;;;;;;;20.59;47.25;95199.53;5012767;28;20994;-59
2022/11/08 09:18:46;;;;;;;12.32;9.68;;;;;;;20.58;47.22;95187.19;4994108;28;20053;-60
2022/11/08 09:21:12;;;;;;;12.98;10.10;;;;;;;22.51;47.29;95493.28;5011937;28;20395;-60
2022/11/08 09:23:37;;;;;;;13.00;10.85;;;;;;;22.47;47.28;95492.78;4994004;28;20141;-61
2022/11/08 09:26:03;;;;;;;12.35;10.15;;;;;;;22.53;47.15;95479.94;4994385;28;20045;-61
2022/11/08 09:28:30;;;;;;;11.70;9.95;;;;;;;22.49;47.19;95482.88;5013068;28;20025;-60
2022/11/08 09:31:08;;;;;;;12.60;10.32;;;;;;;22.54;47.25;95478.69;4992920;28;20033;-62
2022/11/08 09:33:33;;;;;;;12.05;9.88;;;;;;;22.54;46.95;95473.25;4992734;28;20049;-61
2022/11/08 09:36:00;;;;;;;12.32;10.10;;;;;;;21.42;47.21;95312.69;4979502;28;20049;-62
2022/11/08 09:38:25;;;;;;;13.20;10.43;;;;;;;22.52;47.39;95467.56;4993781;28;20037;-62
2022/11/08 09:41:14;;;;;;;13.25;10.90;;;;;;;22.49;47.29;95468.53;5011730;28;20112;-63
2022/11/08 09:44:17;;;;;;;12.63;9.95;;;;;;;22.48;47.13;95473.25;4999776;28;20045;-60
2022/11/08 09:46:56;;;;;;;12.18;10.25;;;;;;;22.30;47.14;95440.31;4970966;28;20540;-62
2022/11/08 09:49:30;;;;;;;12.57;9.85;;;;;;;21.74;47.30;95355.59;5010968;28;20076;-58
2022/11/08 09:51:57;;;;;;;10.95;9.65;;;;;;;22.51;47.01;95466.81;5010743;28;20479;-61
2022/11/08 09:54:28;;;;;;;11.75;9.60;;;;;;;22.53;47.22;95469.78;4980938;28;20045;-59
2022/11/08 09:56:54;;;;;;;12.65;9.57;;;;;;;22.50;47.31;95465.31;4994771;28;20071;-61
2022/11/08 09:59:47;;;;;;;16.40;12.60;;;;;;;22.27;47.36;95465.78;4983517;28;20107;-61
2022/11/08 10:02:19;;;;;;;13.23;9.95;;;;;;;21.31;47.59;95313.41;4996580;28;20050;-61
2022/11/08 10:05:14;;;;;;;14.32;11.15;;;;;;;21.11;47.13;95251.13;5011031;28;20036;-60
2022/11/08 10:08:01;;;;;;;16.13;12.00;;;;;;;22.05;48.26;95381.38;4981870;28;20526;-61
2022/11/08 10:10:38;;;;;;;23.75;14.45;;;;;;;21.49;47.96;95269.53;4978239;28;20451;-62
2022/11/08 10:13:22;;;;;;;18.90;13.48;;;;;;;22.75;47.85;95463.63;4993640;28;20508;-61
2022/11/08 10:16:26;;;;;;;18.75;13.95;;;;;;;22.93;47.39;95442.88;5010489;28;20026;-61
2022/11/08 10:19:16;;;;;;;18.45;12.95;;;;;;;23.04;46.95;95439.41;4992337;28;20141;-59
2022/11/08 10:21:59;;;;;;;16.98;12.05;;;;;;;23.11;47.07;95436.91;5010579;28;20262;-61
2022/11/08 10:24:24;;;;;;;16.33;12.05;;;;;;;23.22;46.54;95436.16;4976817;28;20048;-59
2022/11/08 10:26:49;;;;;;;16.48;12.07;;;;;;;23.37;46.20;95432.66;5008297;28;20418;-61
2022/11/08 10:29:22;;;;;;;17.88;11.98;;;;;;;23.32;46.07;95408.16;4988615;28;20369;-61
2022/11/08 10:31:52;;;;;;;15.27;11.95;;;;;;;23.61;46.14;95423.94;4988144;28;20552;-61
2022/11/08 10:34:23;;;;;;;16.90;12.35;;;;;;;23.59;45.92;95426.41;4983449;28;20077;-61
2022/11/08 10:36:51;;;;;;;14.60;11.85;;;;;;;23.72;45.31;95418.47;4971752;28;20349;-60
2022/11/08 10:39:20;;;;;;;15.43;12.30;;;;;;;23.90;45.24;95419.38;5006314;28;20151;-60
2022/11/08 10:41:48;;;;;;;15.77;11.83;;;;;;;23.93;45.18;95429.28;4951714;28;20046;-59
2022/11/08 10:44:18;;;;;;;15.02;11.38;;;;;;;23.89;44.84;95417.88;5007364;28;20600;-59
2022/11/08 10:46:48;;;;;;;19.27;11.85;;;;;;;23.88;45.03;95407.47;4988192;28;20033;-58
2022/11/08 10:49:27;;;;;;;14.60;11.20;;;;;;;24.01;44.90;95408.41;4987447;28;20120;-61
2022/11/08 10:51:57;;;;;;;15.18;11.80;;;;;;;23.04;44.80;95246.75;4986977;28;20908;-61
2022/11/08 10:54:42;;;;;;;14.90;11.52;;;;;;;24.10;44.79;95405.38;5004866;28;20053;-59
2022/11/08 10:57:21;;;;;;;14.88;11.20;;;;;;;24.08;44.48;95402.44;5004958;28;20236;-60
2022/11/08 10:59:47;;;;;;;15.43;11.50;;;;;;;24.16;44.42;95400.63;5007428;28;20532;-60
2022/11/08 11:02:28;;;;;;;15.35;11.25;;;;;;;24.17;44.32;95399.41;4996894;28;20050;-64
2022/11/08 11:05:18;;;;;;;16.30;11.85;;;;;;;23.86;44.44;95375.25;4984515;28;20113;-60
2022/11/08 11:07:45;;;;;;;14.18;11.38;;;;;;;24.08;44.58;95402.44;4972766;28;20178;-59
2022/11/08 11:10:22;;;;;;;13.85;11.25;;;;;;;24.04;45.06;95396.50;4989603;28;20033;-59
2022/11/08 11:12:49;;;;;;;15.00;11.25;;;;;;;23.77;44.70;95344.09;4990098;28;20042;-61
2022/11/08 11:15:15;;;;;;;14.02;10.85;;;;;;;24.00;44.81;95385.09;4990315;28;20430;-62
2022/11/08 11:17:43;;;;;;;15.23;10.45;;;;;;;23.99;44.32;95421.06;4989500;28;20030;-62
2022/11/08 11:20:18;;;;;;;13.88;11.10;;;;;;;23.83;44.53;95358.44;4989579;28;20038;-59
2022/11/08 11:22:44;;;;;;;12.75;10.07;;;;;;;23.05;44.11;95225.72;4989269;28;20037;-62
2022/11/08 11:25:15;;;;;;;12.52;10.48;;;;;;;24.16;44.77;95380.81;4991007;28;20060;-60
2022/11/08 11:27:40;;;;;;;14.02;10.95;;;;;;;24.30;43.91;95396.81;4989533;28;20077;-60
2022/11/08 11:30:27;;;;;;;13.15;10.23;;;;;;;24.19;44.37;95380.53;4972844;28;20589;-62
2022/11/08 11:33:01;;;;;;;11.85;10.20;;;;;;;24.43;44.22;95384.13;5002724;28;20038;-60
2022/11/08 11:35:51;;;;;;;13.40;10.52;;;;;;;24.36;43.82;95383.91;4991438;28;20037;-59
2022/11/08 11:38:38;;;;;;;13.32;9.95;;;;;;;24.25;43.92;95378.50;4975206;28;20043;-64
2022/11/08 11:41:08;;;;;;;13.27;10.13;;;;;;;24.05;44.09;95348.88;4983307;28;20038;-61
2022/11/08 11:43:42;;;;;;;12.25;10.38;;;;;;;24.16;43.93;95370.63;4953906;28;20061;-63